Time;durP1;ratioP1;P1;durP2;ratioP2;P2;SDS_P1;SDS_P2;PMS_P1;PMS_P2;Temp;Humidity;BMP_temperature;BMP_pressure;BME280_temperature;BME280_humidity;BME280_pressure;Samples;Min_cycle;Max_cycle;Signal;HPM_P1;HPM_P2
2020/12/15 00:01:13;;;;;;;6.82;4.28;;;;;;;;;;5062805;28;20390;-58
2020/12/15 00:03:51;;;;;;;6.35;4.72;;;;;;;;;;5058006;28;20474;-57
2020/12/15 00:06:40;;;;;;;5.15;4.30;;;;;;;;;;5077443;28;20025;-58
2020/12/15 00:09:12;;;;;;;6.93;4.75;;;;;;;;;;5070959;28;20036;-53
2020/12/15 00:12:09;;;;;;;5.28;3.75;;;;;;;;;;5076947;28;20032;-57
2020/12/15 00:14:46;;;;;;;5.72;3.78;;;;;;;;;;5069827;28;20036;-58
2020/12/15 00:20:12;;;;;;;6.78;3.55;;;;;;;;;;5077550;28;20111;-57
2020/12/15 00:22:45;;;;;;;17.42;4.95;;;;;;;;;;5059107;28;20028;-58
2020/12/15 00:28:19;;;;;;;7.00;3.58;;;;;;;;;;5062153;28;20036;-58
2020/12/15 00:31:07;;;;;;;5.15;4.07;;;;;;;;;;5056698;28;20120;-58
2020/12/15 00:34:17;;;;;;;6.70;3.88;;;;;;;;;;5058155;28;20115;-58
2020/12/15 00:36:56;;;;;;;11.13;4.87;;;;;;;;;;5076168;28;20458;-57
2020/12/15 00:39:32;;;;;;;6.93;4.32;;;;;;;;;;5076667;28;20031;-54
2020/12/15 00:42:07;;;;;;;4.43;2.90;;;;;;;;;;5058402;28;20462;-57
2020/12/15 00:44:45;;;;;;;6.60;4.85;;;;;;;;;;5050466;28;20033;-58
2020/12/15 00:47:16;;;;;;;5.38;4.25;;;;;;;;;;5056134;28;20378;-58
2020/12/15 00:49:50;;;;;;;6.00;3.88;;;;;;;;;;5075289;28;20024;-56
2020/12/15 00:52:24;;;;;;;4.93;4.43;;;;;;;;;;5057914;28;20036;-57
2020/12/15 00:54:59;;;;;;;6.03;4.90;;;;;;;;;;5034682;28;20491;-56
2020/12/15 00:57:30;;;;;;;4.00;3.28;;;;;;;;;;5033975;28;20065;-57
2020/12/15 01:00:04;;;;;;;4.00;3.35;;;;;;;;;;5033549;28;20053;-58
2020/12/15 01:02:42;;;;;;;8.82;3.85;;;;;;;;;;5034095;28;20033;-58
2020/12/15 01:05:17;;;;;;;5.47;3.55;;;;;;;;;;5033780;28;20042;-58
2020/12/15 01:10:50;;;;;;;5.78;4.57;;;;;;;;;;5023459;28;20045;-58
2020/12/15 01:13:33;;;;;;;5.93;4.30;;;;;;;;;;5032487;28;20567;-58
2020/12/15 01:16:33;;;;;;;;;;;;;;;;;;;;;
2020/12/15 01:19:25;;;;;;;8.55;4.40;;;;;;;;;;5024110;28;20038;-58
2020/12/15 01:22:23;;;;;;;5.53;4.40;;;;;;;;;;5009902;28;20505;-57
2020/12/15 01:24:55;;;;;;;6.38;5.07;;;;;;;;;;5028988;28;20036;-58
2020/12/15 01:27:34;;;;;;;6.97;5.32;;;;;;;;;;5058517;28;20025;-56
2020/12/15 01:30:08;;;;;;;4.95;4.28;;;;;;;;;;5058213;28;20111;-58
2020/12/15 01:32:53;;;;;;;6.55;4.15;;;;;;;;;;5076642;28;20115;-58
2020/12/15 01:35:33;;;;;;;7.60;5.20;;;;;;;;;;5075430;28;20032;-57
2020/12/15 01:38:15;;;;;;;7.00;5.32;;;;;;;;;;5075440;28;20032;-58
2020/12/15 01:40:58;;;;;;;5.90;5.03;;;;;;;;;;5075871;28;20029;-58
2020/12/15 01:43:51;;;;;;;5.22;4.47;;;;;;;;;;5075756;28;20063;-57
2020/12/15 01:46:25;;;;;;;6.72;4.65;;;;;;;;;;5067840;28;20040;-58
2020/12/15 01:48:59;;;;;;;7.03;4.75;;;;;;;;;;5057947;28;20370;-57
2020/12/15 01:51:54;;;;;;;5.20;4.20;;;;;;;;;;5075279;28;20028;-57
2020/12/15 01:54:50;;;;;;;6.50;5.55;;;;;;;;;;5067220;28;20045;-57
2020/12/15 01:57:31;;;;;;;5.82;3.95;;;;;;;;;;5075528;28;20028;-58
2020/12/15 02:00:07;;;;;;;6.97;4.07;;;;;;;;;;5086545;28;20052;-57
2020/12/15 02:02:41;;;;;;;5.93;4.63;;;;;;;;;;5091587;28;20510;-55
2020/12/15 02:05:45;;;;;;;7.15;4.40;;;;;;;;;;5092784;28;20047;-54
2020/12/15 02:08:18;;;;;;;6.10;4.20;;;;;;;;;;5033577;28;20030;-57
2020/12/15 02:11:02;;;;;;;4.93;4.00;;;;;;;;;;5087708;28;20044;-58
2020/12/15 02:13:40;;;;;;;5.65;4.10;;;;;;;;;;5095452;28;20088;-58
2020/12/15 02:16:13;;;;;;;4.25;3.50;;;;;;;;;;5089675;28;20028;-58
2020/12/15 02:18:44;;;;;;;4.82;4.05;;;;;;;;;;5095367;28;20089;-58
2020/12/15 02:21:28;;;;;;;4.20;3.05;;;;;;;;;;5095024;28;20028;-58
2020/12/15 02:24:10;;;;;;;4.60;3.75;;;;;;;;;;5095455;28;20433;-58
2020/12/15 02:27:02;;;;;;;4.05;3.63;;;;;;;;;;5093646;28;20043;-58
2020/12/15 02:32:42;;;;;;;5.13;3.08;;;;;;;;;;5094000;28;20127;-58
2020/12/15 02:35:43;;;;;;;4.13;3.08;;;;;;;;;;5094471;28;20122;-58
2020/12/15 02:41:34;;;;;;;3.83;2.60;;;;;;;;;;5092360;28;20377;-58
2020/12/15 02:44:28;;;;;;;3.65;2.85;;;;;;;;;;5095571;28;20031;-58
2020/12/15 02:49:55;;;;;;;4.93;2.17;;;;;;;;;;5087898;28;20039;-57
2020/12/15 02:52:45;;;;;;;7.78;3.10;;;;;;;;;;5095142;28;20110;-58
2020/12/15 02:55:17;;;;;;;4.80;2.83;;;;;;;;;;5094476;28;20020;-58
2020/12/15 03:01:00;;;;;;;4.07;2.85;;;;;;;;;;5093367;28;20059;-58
2020/12/15 03:09:58;;;;;;;3.42;2.13;;;;;;;;;;5089788;28;20035;-54
2020/12/15 03:12:41;;;;;;;3.00;2.10;;;;;;;;;;5092924;28;20032;-56
2020/12/15 03:18:31;;;;;;;6.93;4.30;;;;;;;;;;5012052;28;20040;-56
2020/12/15 03:21:15;;;;;;;3.30;2.47;;;;;;;;;;5087714;28;20362;-55
2020/12/15 03:24:01;;;;;;;4.95;3.72;;;;;;;;;;5094114;28;20070;-56
2020/12/15 03:29:23;;;;;;;6.85;5.03;;;;;;;;;;5093247;28;20068;-55
2020/12/15 03:32:02;;;;;;;6.03;4.38;;;;;;;;;;5093513;28;20024;-55
2020/12/15 03:34:45;;;;;;;8.80;4.68;;;;;;;;;;5094166;28;20025;-56
2020/12/15 03:37:19;;;;;;;7.97;5.10;;;;;;;;;;5093715;28;20028;-53
2020/12/15 03:40:00;;;;;;;6.35;5.10;;;;;;;;;;5093322;28;20024;-56
2020/12/15 03:43:01;;;;;;;4.45;3.53;;;;;;;;;;5094338;28;20043;-55
2020/12/15 03:45:42;;;;;;;6.35;4.40;;;;;;;;;;5093465;28;20024;-56
2020/12/15 03:48:25;;;;;;;7.13;5.07;;;;;;;;;;5093975;28;20016;-56
2020/12/15 03:51:04;;;;;;;6.05;4.82;;;;;;;;;;5070697;28;20043;-56
2020/12/15 03:54:12;;;;;;;;;;;;;;;;;;;;;
2020/12/15 03:57:32;;;;;;;6.30;5.53;;;;;;;;;;5030567;28;20378;-54
2020/12/15 03:59:55;;;;;;;5.85;4.35;;;;;;;;;;5082746;28;20051;-55
2020/12/15 04:02:33;;;;;;;9.35;6.72;;;;;;;;;;5094271;28;20031;-56
2020/12/15 04:05:08;;;;;;;6.82;6.13;;;;;;;;;;5091931;28;20032;-55
2020/12/15 04:07:48;;;;;;;10.03;6.70;;;;;;;;;;5094041;28;20426;-56
2020/12/15 04:10:30;;;;;;;7.05;6.35;;;;;;;;;;5073694;28;20044;-55
2020/12/15 04:13:10;;;;;;;7.38;5.78;;;;;;;;;;5075256;28;20028;-53
2020/12/15 04:15:48;;;;;;;7.93;6.35;;;;;;;;;;5093251;28;20028;-55
2020/12/15 04:18:23;;;;;;;9.57;7.13;;;;;;;;;;5094179;28;20357;-54
2020/12/15 04:21:11;;;;;;;10.52;6.95;;;;;;;;;;5093743;28;20024;-55
2020/12/15 04:23:54;;;;;;;7.00;6.20;;;;;;;;;;5058631;28;20105;-54
2020/12/15 04:26:35;;;;;;;7.53;6.20;;;;;;;;;;5097296;28;20035;-55
2020/12/15 04:29:06;;;;;;;6.82;6.13;;;;;;;;;;5097101;28;20020;-54
2020/12/15 04:34:36;;;;;;;10.85;5.93;;;;;;;;;;5097981;28;20107;-55
2020/12/15 04:37:11;;;;;;;6.22;4.57;;;;;;;;;;5094356;28;20032;-54
2020/12/15 04:43:25;;;;;;;7.03;5.15;;;;;;;;;;5096718;28;20020;-55
2020/12/15 04:46:21;;;;;;;5.63;4.67;;;;;;;;;;5096518;28;20055;-53
2020/12/15 04:52:17;;;;;;;7.10;6.40;;;;;;;;;;5082054;28;20036;-55
2020/12/15 04:54:55;;;;;;;6.57;4.47;;;;;;;;;;5096726;28;20032;-56
2020/12/15 04:57:56;;;;;;;5.95;3.88;;;;;;;;;;5096850;28;20504;-56
2020/12/15 05:00:22;;;;;;;6.68;4.30;;;;;;;;;;5076721;28;20116;-56
2020/12/15 05:03:15;;;;;;;3.50;3.15;;;;;;;;;;5096771;28;20020;-55
2020/12/15 05:09:09;;;;;;;5.93;3.40;;;;;;;;;;5091925;28;20070;-55
2020/12/15 05:14:46;;;;;;;5.43;3.55;;;;;;;;;;5013240;28;20467;-54
2020/12/15 05:17:32;;;;;;;;;;;;;;;;;;;;;
2020/12/15 05:20:10;;;;;;;4.80;4.20;;;;;;;;;;5091697;28;20046;-54
2020/12/15 05:22:53;;;;;;;5.82;3.53;;;;;;;;;;5079120;28;20031;-56
2020/12/15 05:25:29;;;;;;;4.85;3.40;;;;;;;;;;5077123;28;20040;-54
2020/12/15 05:31:44;;;;;;;3.78;3.17;;;;;;;;;;5096288;28;20036;-54
2020/12/15 05:34:41;;;;;;;7.03;3.67;;;;;;;;;;5024075;28;20494;-55
2020/12/15 05:37:33;;;;;;;3.50;2.60;;;;;;;;;;5070952;28;20028;-55
2020/12/15 05:40:00;;;;;;;6.10;3.47;;;;;;;;;;5096019;28;20028;-56
2020/12/15 05:42:57;;;;;;;4.03;3.63;;;;;;;;;;5080454;28;20534;-55
2020/12/15 05:45:32;;;;;;;7.00;3.97;;;;;;;;;;5093829;28;20095;-57
2020/12/15 05:48:27;;;;;;;;;;;;;;;;;;;;;
2020/12/15 05:51:18;;;;;;;4.40;3.55;;;;;;;;;;5094053;28;19918;-56
2020/12/15 05:53:59;;;;;;;6.00;4.88;;;;;;;;;;5095224;28;20028;-54
2020/12/15 05:56:34;;;;;;;8.77;4.70;;;;;;;;;;5095701;28;20464;-57
2020/12/15 05:59:25;;;;;;;5.78;4.22;;;;;;;;;;5096227;28;20039;-57
2020/12/15 06:02:08;;;;;;;5.27;4.27;;;;;;;;;;5094567;28;20058;-56
2020/12/15 06:04:55;;;;;;;4.88;3.67;;;;;;;;;;5095698;28;20270;-56
2020/12/15 06:07:26;;;;;;;4.97;4.35;;;;;;;;;;5094639;28;20028;-55
2020/12/15 06:10:27;;;;;;;4.72;4.07;;;;;;;;;;5094405;28;20050;-55
2020/12/15 06:16:07;;;;;;;;;;;;;;;;;;;;;
2020/12/15 06:18:37;;;;;;;14.60;5.85;;;;;;;;;;5026209;28;20557;-57
2020/12/15 06:21:13;;;;;;;5.75;4.75;;;;;;;;;;5031117;28;20483;-55
2020/12/15 06:23:45;;;;;;;7.28;5.20;;;;;;;;;;5030309;28;20088;-57
2020/12/15 06:26:32;;;;;;;8.13;6.68;;;;;;;;;;5032170;28;20033;-57
2020/12/15 06:29:01;;;;;;;8.80;6.95;;;;;;;;;;5029603;28;20520;-58
2020/12/15 06:31:39;;;;;;;8.25;5.90;;;;;;;;;;5015668;28;20052;-56
2020/12/15 06:34:33;;;;;;;;;;;;;;;;;;;;;
2020/12/15 06:37:01;;;;;;;6.47;5.80;;;;;;;;;;5072948;28;20036;-58
2020/12/15 06:39:37;;;;;;;7.97;6.93;;;;;;;;;;5095204;28;20024;-57
2020/12/15 06:42:22;;;;;;;8.65;5.90;;;;;;;;;;5074559;28;20447;-56
2020/12/15 06:45:04;;;;;;;9.90;6.95;;;;;;;;;;5062154;28;20086;-54
2020/12/15 06:47:53;;;;;;;8.00;7.07;;;;;;;;;;5084297;28;20511;-56
2020/12/15 06:50:30;;;;;;;7.70;6.80;;;;;;;;;;5093514;28;20384;-57
2020/12/15 06:53:26;;;;;;;7.70;6.95;;;;;;;;;;5092971;28;20032;-57
2020/12/15 06:56:07;;;;;;;8.80;7.43;;;;;;;;;;5093146;28;20517;-56
2020/12/15 06:58:43;;;;;;;14.02;8.63;;;;;;;;;;5093982;28;20106;-57
2020/12/15 07:01:31;;;;;;;13.07;10.45;;;;;;;;;;5093194;28;20531;-57
2020/12/15 07:04:29;;;;;;;49.15;31.88;;;;;;;;;;5075395;28;20485;-56
2020/12/15 07:07:27;;;;;;;32.47;24.30;;;;;;;;;;5075526;28;20477;-55
2020/12/15 07:10:00;;;;;;;15.38;12.88;;;;;;;;;;5093362;28;20027;-55
2020/12/15 07:13:07;;;;;;;17.90;15.93;;;;;;;;;;5070434;28;20537;-57
2020/12/15 07:18:39;;;;;;;10.90;9.10;;;;;;;;;;5090475;28;20032;-57
2020/12/15 07:21:09;;;;;;;11.02;8.57;;;;;;;;;;5093763;28;20025;-56
2020/12/15 07:26:43;;;;;;;10.07;6.90;;;;;;;;;;5011766;28;20483;-56
2020/12/15 07:29:17;;;;;;;7.82;7.03;;;;;;;;;;4996004;28;20041;-55
2020/12/15 07:32:26;;;;;;;18.13;9.32;;;;;;;;;;5091694;28;20032;-55
2020/12/15 07:35:18;;;;;;;10.88;8.15;;;;;;;;;;5093038;28;20466;-56
2020/12/15 07:38:06;;;;;;;6.82;5.97;;;;;;;;;;5092517;28;20028;-57
2020/12/15 07:40:44;;;;;;;8.82;7.10;;;;;;;;;;5093392;28;20090;-57
2020/12/15 07:43:52;;;;;;;9.93;8.90;;;;;;;;;;5093522;28;20107;-55
2020/12/15 07:46:33;;;;;;;9.65;5.55;;;;;;;;;;5080415;28;20028;-57
2020/12/15 07:49:10;;;;;;;7.18;4.95;;;;;;;;;;5093317;28;20036;-56
2020/12/15 07:51:50;;;;;;;6.70;4.65;;;;;;;;;;5093752;28;20039;-56
2020/12/15 07:54:17;;;;;;;6.30;5.10;;;;;;;;;;5066516;28;20393;-57
2020/12/15 07:57:04;;;;;;;7.25;6.13;;;;;;;;;;5093808;28;20020;-58
2020/12/15 08:03:21;;;;;;;7.10;6.22;;;;;;;;;;5048488;28;20075;-58
2020/12/15 08:06:10;;;;;;;8.82;5.80;;;;;;;;;;5094209;28;20047;-58
2020/12/15 08:09:02;;;;;;;7.18;5.57;;;;;;;;;;5085985;28;20492;-59
2020/12/15 08:11:47;;;;;;;8.95;4.68;;;;;;;;;;5072078;28;20074;-58
2020/12/15 08:14:45;;;;;;;;;;;;;;;;;;;;;
2020/12/15 08:20:20;;;;;;;;;;;;;;;;;;5098477;28;20500;-58
2020/12/15 08:22:58;;;;;;;7.70;6.20;;;;;;;;;;5075355;28;20340;-58
2020/12/15 08:25:30;;;;;;;5.75;5.05;;;;;;;;;;5099223;28;20016;-58
2020/12/15 08:28:32;;;;;;;5.70;5.03;;;;;;;;;;5098607;28;20029;-59
2020/12/15 08:31:11;;;;;;;6.85;5.25;;;;;;;;;;5097844;28;20116;-58
2020/12/15 08:33:53;;;;;;;5.63;4.65;;;;;;;;;;5098276;28;20056;-59
2020/12/15 08:36:54;;;;;;;8.93;6.20;;;;;;;;;;5098001;28;20107;-58
2020/12/15 08:42:29;;;;;;;7.63;5.90;;;;;;;;;;5082938;28;20036;-58
2020/12/15 08:45:04;;;;;;;7.22;5.50;;;;;;;;;;5094118;28;20036;-58
2020/12/15 08:48:01;;;;;;;;;;;;;;;;;;;;;
2020/12/15 08:50:40;;;;;;;6.10;5.28;;;;;;;;;;5097629;28;20034;-58
2020/12/15 08:53:34;;;;;;;6.72;4.97;;;;;;;;;;5097493;28;20111;-59
2020/12/15 08:56:12;;;;;;;8.20;5.88;;;;;;;;;;5097331;28;20040;-59
2020/12/15 08:59:15;;;;;;;7.55;5.53;;;;;;;;;;5074615;28;20052;-57
2020/12/15 09:02:28;;;;;;;8.73;5.10;;;;;;;;;;5078094;28;20508;-58
2020/12/15 09:05:07;;;;;;;5.20;4.40;;;;;;;;;;5093667;28;20039;-58
2020/12/15 09:10:48;;;;;;;5.97;4.32;;;;;;;;;;5090804;28;20426;-59
2020/12/15 09:13:19;;;;;;;7.30;5.10;;;;;;;;;;5096688;28;20036;-58
2020/12/15 09:15:54;;;;;;;5.35;4.68;;;;;;;;;;5096739;28;20024;-60
2020/12/15 09:18:47;;;;;;;6.85;4.93;;;;;;;;;;5095856;28;20049;-59
2020/12/15 09:21:38;;;;;;;8.65;5.97;;;;;;;;;;5096095;28;20024;-58
2020/12/15 09:27:22;;;;;;;6.97;5.55;;;;;;;;;;5095441;28;20031;-58
2020/12/15 09:30:12;;;;;;;9.73;5.15;;;;;;;;;;5094024;28;20078;-58
2020/12/15 09:33:08;;;;;;;7.75;5.53;;;;;;;;;;5096556;28;20036;-59
2020/12/15 09:35:51;;;;;;;6.75;5.95;;;;;;;;;;5095261;28;20047;-58
2020/12/15 09:38:40;;;;;;;4.63;3.83;;;;;;;;;;5095985;28;20020;-59
2020/12/15 09:41:19;;;;;;;7.00;5.30;;;;;;;;;;5096145;28;20052;-58
2020/12/15 09:43:45;;;;;;;5.28;4.20;;;;;;;;;;5095684;28;20039;-58
2020/12/15 09:49:21;;;;;;;5.82;5.22;;;;;;;;;;5084905;28;20036;-58
2020/12/15 09:52:03;;;;;;;5.95;4.80;;;;;;;;;;5095870;28;20355;-58
2020/12/15 10:01:05;;;;;;;9.18;5.90;;;;;;;;;;4988060;28;20156;-59
2020/12/15 10:03:36;;;;;;;7.70;5.85;;;;;;;;;;4986804;28;20070;-56
2020/12/15 10:06:35;;;;;;;5.90;4.40;;;;;;;;;;4993885;28;20045;-60
2020/12/15 10:09:17;;;;;;;5.57;4.47;;;;;;;;;;5046345;28;20052;-59
2020/12/15 10:12:13;;;;;;;6.03;5.18;;;;;;;;;;5095699;28;20060;-59
2020/12/15 10:15:03;;;;;;;6.85;5.80;;;;;;;;;;5094933;28;20016;-57
2020/12/15 10:17:35;;;;;;;7.25;5.60;;;;;;;;;;5055767;28;20408;-57
2020/12/15 10:20:04;;;;;;;6.43;5.32;;;;;;;;;;5095107;28;20036;-56
2020/12/15 10:22:51;;;;;;;6.65;5.95;;;;;;;;;;5095714;28;20024;-58
2020/12/15 10:25:40;;;;;;;5.93;4.93;;;;;;;;;;5074631;28;20025;-57
2020/12/15 10:28:24;;;;;;;6.40;4.93;;;;;;;;;;5082014;28;20117;-58
2020/12/15 10:30:59;;;;;;;12.05;5.78;;;;;;;;;;5095447;28;20028;-57
2020/12/15 10:33:25;;;;;;;7.45;6.55;;;;;;;;;;5093629;28;20477;-60
2020/12/15 10:36:23;;;;;;;7.72;5.78;;;;;;;;;;5095600;28;20031;-58
2020/12/15 10:41:53;;;;;;;7.00;5.70;;;;;;;;;;5065197;28;20028;-57
2020/12/15 10:44:32;;;;;;;7.43;5.00;;;;;;;;;;5075873;28;20032;-57
2020/12/15 10:50:15;;;;;;;7.97;5.22;;;;;;;;;;5078043;28;20469;-58
2020/12/15 10:52:42;;;;;;;8.05;6.72;;;;;;;;;;5075477;28;20028;-58
2020/12/15 10:55:43;;;;;;;8.35;7.10;;;;;;;;;;5012689;28;20416;-59
2020/12/15 11:01:24;;;;;;;9.15;6.50;;;;;;;;;;5093877;28;20469;-56
2020/12/15 11:04:40;;;;;;;7.18;5.63;;;;;;;;;;5094850;28;20078;-57
2020/12/15 11:07:32;;;;;;;6.07;5.45;;;;;;;;;;5094789;28;20097;-57
2020/12/15 11:10:08;;;;;;;5.90;5.20;;;;;;;;;;5081689;28;20043;-57
2020/12/15 11:12:50;;;;;;;5.63;5.03;;;;;;;;;;5093773;28;20039;-56
2020/12/15 11:15:21;;;;;;;5.53;4.85;;;;;;;;;;5076678;28;20417;-57
2020/12/15 11:21:17;;;;;;;4.82;4.05;;;;;;;;;;5061879;28;20056;-58
2020/12/15 11:24:01;;;;;;;3.58;2.92;;;;;;;;;;5068085;28;20028;-57
2020/12/15 11:26:33;;;;;;;4.32;3.85;;;;;;;;;;5093510;28;20127;-57
2020/12/15 11:29:33;;;;;;;;;;;;;;;;;;;;;
2020/12/15 11:32:13;;;;;;;5.78;3.28;;;;;;;;;;5089917;28;20036;-58
2020/12/15 11:37:52;;;;;;;;;;;;;;;;;;;;;
2020/12/15 11:40:33;;;;;;;5.68;3.92;;;;;;;;;;5089695;28;20042;-58
2020/12/15 11:43:20;;;;;;;5.80;3.88;;;;;;;;;;5098366;28;20024;-58
2020/12/15 11:45:59;;;;;;;4.35;3.50;;;;;;;;;;5098224;28;20039;-58
2020/12/15 11:48:38;;;;;;;4.85;3.63;;;;;;;;;;5098120;28;20027;-57
2020/12/15 11:51:09;;;;;;;7.63;4.88;;;;;;;;;;5097764;28;20388;-58
2020/12/15 11:53:47;;;;;;;5.63;4.47;;;;;;;;;;5096267;28;20089;-56
2020/12/15 11:56:17;;;;;;;5.00;4.50;;;;;;;;;;5097300;28;20027;-58
2020/12/15 11:58:55;;;;;;;7.57;4.22;;;;;;;;;;5097278;28;20023;-57
2020/12/15 12:01:45;;;;;;;5.40;3.67;;;;;;;;;;5092827;28;20469;-57
2020/12/15 12:07:22;;;;;;;5.80;4.43;;;;;;;;;;5076863;28;20029;-57
2020/12/15 12:10:05;;;;;;;6.90;4.72;;;;;;;;;;5075688;28;20032;-57
2020/12/15 12:12:36;;;;;;;5.47;4.63;;;;;;;;;;5077501;28;20070;-56
2020/12/15 12:15:41;;;;;;;7.38;5.25;;;;;;;;;;5076372;28;20029;-58
2020/12/15 12:18:16;;;;;;;6.35;4.97;;;;;;;;;;4995291;28;20041;-58
2020/12/15 12:20:50;;;;;;;4.72;4.25;;;;;;;;;;4995100;28;20461;-58
2020/12/15 12:23:22;;;;;;;5.65;4.75;;;;;;;;;;4979508;28;20043;-58
2020/12/15 12:26:00;;;;;;;5.75;5.15;;;;;;;;;;4994868;28;20030;-57
2020/12/15 12:28:46;;;;;;;9.05;5.47;;;;;;;;;;4969716;28;20175;-58
2020/12/15 12:31:23;;;;;;;8.48;7.10;;;;;;;;;;5077271;28;20039;-58
2020/12/15 12:34:12;;;;;;;7.10;6.05;;;;;;;;;;5077122;28;20154;-57
2020/12/15 12:36:47;;;;;;;11.90;5.75;;;;;;;;;;5076892;28;20020;-58
2020/12/15 12:39:35;;;;;;;8.43;5.15;;;;;;;;;;5059759;28;20066;-58
2020/12/15 12:42:28;;;;;;;;;;;;;;;;;;;;;
2020/12/15 12:45:00;;;;;;;6.45;5.72;;;;;;;;;;5075614;28;20039;-58
2020/12/15 12:47:38;;;;;;;7.55;6.80;;;;;;;;;;5058429;28;20036;-55
2020/12/15 12:50:04;;;;;;;8.70;5.75;;;;;;;;;;5074847;28;20432;-58
2020/12/15 12:52:37;;;;;;;11.13;6.63;;;;;;;;;;5075693;28;20062;-57
2020/12/15 12:55:10;;;;;;;8.40;6.80;;;;;;;;;;5077119;28;20039;-57
2020/12/15 12:58:03;;;;;;;5.72;5.05;;;;;;;;;;5075668;28;20025;-58
2020/12/15 13:00:57;;;;;;;8.43;7.60;;;;;;;;;;5075870;28;20036;-58
2020/12/15 13:03:26;;;;;;;10.75;6.53;;;;;;;;;;5090323;28;20450;-58
2020/12/15 13:06:13;;;;;;;7.20;6.03;;;;;;;;;;5095576;28;20039;-57
2020/12/15 13:08:51;;;;;;;10.55;6.72;;;;;;;;;;5082599;28;20060;-58
2020/12/15 13:11:35;;;;;;;7.13;5.97;;;;;;;;;;5095619;28;20056;-58
2020/12/15 13:14:23;;;;;;;6.63;5.95;;;;;;;;;;5095838;28;20095;-58
2020/12/15 13:17:25;;;;;;;8.40;5.43;;;;;;;;;;5038316;28;20035;-57
2020/12/15 13:19:52;;;;;;;7.03;5.70;;;;;;;;;;5095799;28;20481;-57
2020/12/15 13:22:27;;;;;;;11.85;5.95;;;;;;;;;;5060599;28;20486;-57
2020/12/15 13:25:14;;;;;;;6.35;5.57;;;;;;;;;;5096065;28;20020;-56
2020/12/15 13:27:57;;;;;;;7.22;5.65;;;;;;;;;;5095602;28;20363;-56
2020/12/15 13:36:22;;;;;;;5.47;4.85;;;;;;;;;;5095875;28;19910;-58
2020/12/15 13:39:12;;;;;;;;;;;;;;;;;;;;;
2020/12/15 13:41:51;;;;;;;5.63;4.82;;;;;;;;;;5069945;28;20073;-57
2020/12/15 13:44:25;;;;;;;6.97;5.70;;;;;;;;;;5077069;28;20454;-57
2020/12/15 13:47:05;;;;;;;9.93;6.00;;;;;;;;;;5077168;28;20081;-58
2020/12/15 13:49:40;;;;;;;6.45;4.55;;;;;;;;;;5076918;28;20063;-58
2020/12/15 13:52:14;;;;;;;5.28;4.53;;;;;;;;;;5077306;28;20040;-57
2020/12/15 13:54:57;;;;;;;8.23;5.47;;;;;;;;;;5077432;28;20032;-58
2020/12/15 13:57:31;;;;;;;5.55;4.35;;;;;;;;;;5095492;28;20020;-57
2020/12/15 14:00:25;;;;;;;5.82;4.45;;;;;;;;;;5095275;28;20074;-58
2020/12/15 14:03:13;;;;;;;5.40;4.30;;;;;;;;;;5089127;28;20044;-58
2020/12/15 14:05:55;;;;;;;4.00;3.55;;;;;;;;;;5095106;28;20020;-57
2020/12/15 14:08:40;;;;;;;5.38;4.50;;;;;;;;;;5076635;28;20048;-57
2020/12/15 14:11:11;;;;;;;6.43;4.47;;;;;;;;;;5076371;28;20374;-58
2020/12/15 14:13:42;;;;;;;7.32;4.35;;;;;;;;;;5092741;28;20119;-57
2020/12/15 14:16:31;;;;;;;6.55;4.55;;;;;;;;;;5094986;28;20081;-57
2020/12/15 14:19:14;;;;;;;5.35;4.05;;;;;;;;;;5013473;28;20044;-57
2020/12/15 14:22:02;;;;;;;6.22;4.80;;;;;;;;;;5032720;28;20109;-58
2020/12/15 14:24:33;;;;;;;3.95;3.33;;;;;;;;;;5015608;28;20034;-58
2020/12/15 14:27:10;;;;;;;4.90;4.28;;;;;;;;;;5015664;28;20029;-55
2020/12/15 14:29:36;;;;;;;5.82;4.88;;;;;;;;;;5015938;28;20108;-58
2020/12/15 14:35:32;;;;;;;5.75;4.68;;;;;;;;;;5038220;28;20142;-57
2020/12/15 14:38:01;;;;;;;5.82;5.22;;;;;;;;;;5034915;28;20036;-58
2020/12/15 14:40:35;;;;;;;6.40;3.80;;;;;;;;;;5051567;28;20037;-56
2020/12/15 14:43:22;;;;;;;5.75;4.50;;;;;;;;;;5051720;28;20056;-58
2020/12/15 14:45:51;;;;;;;4.43;3.78;;;;;;;;;;5035208;28;20124;-57
2020/12/15 14:48:33;;;;;;;6.20;4.07;;;;;;;;;;5052057;28;20060;-57
2020/12/15 14:51:08;;;;;;;5.32;4.00;;;;;;;;;;5051832;28;20048;-58
2020/12/15 14:54:01;;;;;;;;;;;;;;;;;;;;;
2020/12/15 14:56:53;;;;;;;3.47;2.90;;;;;;;;;;5062773;28;20040;-58
2020/12/15 14:59:28;;;;;;;3.70;2.72;;;;;;;;;;5094240;28;20107;-58
2020/12/15 15:01:57;;;;;;;6.88;3.05;;;;;;;;;;5092730;28;20040;-57
2020/12/15 15:04:28;;;;;;;4.35;2.30;;;;;;;;;;5093481;28;20043;-58
2020/12/15 15:07:00;;;;;;;3.38;2.40;;;;;;;;;;5093481;28;20058;-58
2020/12/15 15:09:33;;;;;;;3.72;2.95;;;;;;;;;;5093762;28;20474;-58
2020/12/15 15:12:06;;;;;;;3.35;2.45;;;;;;;;;;5094292;28;20027;-57
2020/12/15 15:14:47;;;;;;;3.15;2.45;;;;;;;;;;5093910;28;20017;-58
2020/12/15 15:17:21;;;;;;;2.83;2.15;;;;;;;;;;5076544;28;20028;-57
2020/12/15 15:19:55;;;;;;;3.30;1.98;;;;;;;;;;5075752;28;20064;-58
2020/12/15 15:22:23;;;;;;;4.50;2.03;;;;;;;;;;5075576;28;20024;-58
2020/12/15 15:24:54;;;;;;;2.83;1.90;;;;;;;;;;5094716;28;20434;-58
2020/12/15 15:27:21;;;;;;;3.03;1.92;;;;;;;;;;5057195;28;20036;-58
2020/12/15 15:29:55;;;;;;;3.33;2.42;;;;;;;;;;5093816;28;20034;-58
2020/12/15 15:32:37;;;;;;;3.15;2.22;;;;;;;;;;5094066;28;20062;-57
2020/12/15 15:35:14;;;;;;;4.47;3.22;;;;;;;;;;5074829;28;20032;-58
2020/12/15 15:37:43;;;;;;;2.88;2.15;;;;;;;;;;5093764;28;20032;-58
2020/12/15 15:40:12;;;;;;;4.40;2.88;;;;;;;;;;5093272;28;20062;-58
2020/12/15 15:42:44;;;;;;;4.55;2.58;;;;;;;;;;5093380;28;20056;-58
2020/12/15 15:45:23;;;;;;;3.47;2.38;;;;;;;;;;5092822;28;20032;-58
2020/12/15 15:48:15;;;;;;;4.55;2.47;;;;;;;;;;5094178;28;20028;-60
2020/12/15 15:53:55;;;;;;;3.88;2.30;;;;;;;;;;5093645;28;20134;-58
2020/12/15 15:56:34;;;;;;;4.20;2.85;;;;;;;;;;5093067;28;20036;-55
2020/12/15 15:59:20;;;;;;;3.10;2.00;;;;;;;;;;5093640;28;20024;-58
2020/12/15 16:05:03;;;;;;;1.83;1.02;;;;;;;;;;5088105;28;20036;-57
2020/12/15 16:07:47;;;;;;;2.83;1.67;;;;;;;;;;5093255;28;20024;-58
2020/12/15 16:13:01;;;;;;;2.38;1.52;;;;;;;;;;5093291;28;20047;-58
2020/12/15 16:15:30;;;;;;;2.75;1.92;;;;;;;;;;5073630;28;20032;-58
2020/12/15 16:18:06;;;;;;;2.55;1.00;;;;;;;;;;5093022;28;20016;-58
2020/12/15 16:20:34;;;;;;;1.92;1.08;;;;;;;;;;5097051;28;20101;-58
2020/12/15 16:23:10;;;;;;;2.00;1.20;;;;;;;;;;5078666;28;20115;-59
2020/12/15 16:25:50;;;;;;;1.65;1.20;;;;;;;;;;5079094;28;20358;-59
2020/12/15 16:28:16;;;;;;;1.85;0.88;;;;;;;;;;5091983;28;20062;-58
2020/12/15 16:30:50;;;;;;;2.00;1.17;;;;;;;;;;5096333;28;20085;-58
2020/12/15 16:33:26;;;;;;;1.70;1.10;;;;;;;;;;5097314;28;20039;-58
2020/12/15 16:36:16;;;;;;;2.10;1.23;;;;;;;;;;5096553;28;20034;-58
2020/12/15 16:41:48;;;;;;;2.45;1.48;;;;;;;;;;5097394;28;20089;-58
2020/12/15 16:44:27;;;;;;;2.53;1.85;;;;;;;;;;5095840;28;20043;-58
2020/12/15 16:46:57;;;;;;;2.03;1.23;;;;;;;;;;5095414;28;20029;-58
2020/12/15 16:49:41;;;;;;;2.90;1.85;;;;;;;;;;5094965;28;20032;-58
2020/12/15 16:52:13;;;;;;;2.55;1.58;;;;;;;;;;5096859;28;20032;-58
2020/12/15 16:55:00;;;;;;;2.53;1.90;;;;;;;;;;5097429;28;20028;-58
2020/12/15 16:57:29;;;;;;;2.58;1.67;;;;;;;;;;5078149;28;20047;-58
2020/12/15 16:59:55;;;;;;;4.07;1.90;;;;;;;;;;5096126;28;20453;-58
2020/12/15 17:02:34;;;;;;;3.38;1.70;;;;;;;;;;5095802;28;20056;-58
2020/12/15 17:05:09;;;;;;;5.30;2.30;;;;;;;;;;5077610;28;20031;-58
2020/12/15 17:07:41;;;;;;;2.63;1.90;;;;;;;;;;5096319;28;20404;-58
2020/12/15 17:10:39;;;;;;;5.55;2.53;;;;;;;;;;5076321;28;20039;-58
2020/12/15 17:13:27;;;;;;;4.70;4.15;;;;;;;;;;5090533;28;20080;-58
2020/12/15 17:15:56;;;;;;;5.03;3.78;;;;;;;;;;5096180;28;20031;-58
2020/12/15 17:18:25;;;;;;;14.07;7.22;;;;;;;;;;5096025;28;20410;-58
2020/12/15 17:21:03;;;;;;;5.65;4.97;;;;;;;;;;5095353;28;20065;-58
2020/12/15 17:23:44;;;;;;;7.35;6.55;;;;;;;;;;5096328;28;20081;-58
2020/12/15 17:26:18;;;;;;;9.57;7.97;;;;;;;;;;5096051;28;20024;-58
2020/12/15 17:28:49;;;;;;;5.95;5.35;;;;;;;;;;5076629;28;20429;-58
2020/12/15 17:31:49;;;;;;;;;;;;;;;;;;;;;
2020/12/15 17:34:18;;;;;;;5.18;3.15;;;;;;;;;;5083795;28;20040;-59
2020/12/15 17:36:53;;;;;;;4.32;2.97;;;;;;;;;;5095544;28;20024;-59
2020/12/15 17:39:29;;;;;;;;;;;;;;;;;;;;;
2020/12/15 17:41:59;;;;;;;4.28;3.03;;;;;;;;;;5091220;28;20044;-59
2020/12/15 17:44:30;;;;;;;5.75;3.65;;;;;;;;;;5095562;28;20020;-59
2020/12/15 17:46:59;;;;;;;3.97;3.03;;;;;;;;;;5095499;28;20051;-59
2020/12/15 17:49:28;;;;;;;3.30;2.58;;;;;;;;;;5095985;28;20032;-59
2020/12/15 17:58:29;;;;;;;3.97;2.65;;;;;;;;;;5072468;28;20115;-59
2020/12/15 18:01:40;;;;;;;4.15;3.20;;;;;;;;;;5084359;28;20508;-59
2020/12/15 18:07:26;;;;;;;3.70;2.88;;;;;;;;;;5012172;28;20069;-59
2020/12/15 18:10:03;;;;;;;4.88;3.40;;;;;;;;;;5062902;28;20505;-59
2020/12/15 18:12:52;;;;;;;3.05;2.35;;;;;;;;;;5074237;28;20025;-59
2020/12/15 18:15:24;;;;;;;4.10;3.08;;;;;;;;;;5074365;28;20017;-59
2020/12/15 18:17:57;;;;;;;4.85;3.25;;;;;;;;;;5072023;28;20351;-59
2020/12/15 18:20:49;;;;;;;4.28;3.42;;;;;;;;;;5074477;28;20020;-59
2020/12/15 18:23:36;;;;;;;3.53;3.17;;;;;;;;;;5073454;28;20143;-59
2020/12/15 18:26:06;;;;;;;5.82;3.58;;;;;;;;;;5073588;28;20032;-59
2020/12/15 18:28:40;;;;;;;5.30;3.10;;;;;;;;;;5073915;28;20045;-58
2020/12/15 18:31:12;;;;;;;4.13;2.92;;;;;;;;;;5073156;28;20028;-59
2020/12/15 18:36:30;;;;;;;3.50;2.92;;;;;;;;;;5074378;28;20029;-59